Detall de PIREP

Printer-friendly versionPDF version

[2014/08/28 06:57:00]
Flight IATA:CT3200
Pilot Number:042
Company ICAO:CAT
Aircraft Type:A320/E
PAX:110
Departing Airport: LEPA
Destination Airport: EHAM
Alternate Airport:EHRD
Online: VATSIM
Route:GALAT UN861 FISTO UY156 ADABI UN858 VANAD UN874 VEKIN UN873 FERDI UY18 DENUT
Flight Level:F360
No Slew and time accel
No pause
Crash detect
Detect pilot in Cockpit between each 30 and 45 minutes
06:57 Zero fuel Weight: 124282 Lbs, Fuel Weight: 42081 Lbs
06:57 VATSIM:LEPA 280630Z 05006KT 9999 FEW010 23/21 Q1016 NOSIG
06:57 VATSIM:EHAM 280625Z 14006KT 9000 NSC 15/14 Q1014 NOSIG
07:13 Parking Brakes off
07:19 Take-off
07:19 Take off Weight: 165072 Lbs
07:19 Wind: 269º @ 008 Knots Heading: 056º
07:19 POS N39º 33´ 35´´ E002º 44´ 12´´
07:19 Flaps:3 at 140 Knots
07:19 Gear Up: 141 Knots
07:20 Flaps:2 at 173 Knots
07:20 Flaps:0 at 192 Knots
07:34 Wind:270º@025 Knots Heading:345º Ground Speed: 432 Knots Altitude 27339 ft
07:43 TOC
07:43 Fuel Weight: 36433 Lb
07:49 Wind:270º@025 Knots Heading: 350º Ground Speed: 441 Knots Altitude 35987 ft
08:04 Wind:270º@025 Knots Heading: 352º Ground Speed: 442 Knots Altitude 35987 ft
08:19 Wind:270º@025 Knots Heading: 328º Ground Speed: 431 Knots Altitude 35987 ft
08:34 Wind:270º@025 Knots Heading: 000º Ground Speed: 444 Knots Altitude 35987 ft
08:49 Wind:270º@025 Knots Heading: 046º Ground Speed: 461 Knots Altitude 35987 ft
09:03 TOD
09:03 Fuel Weight: 30053 Lb
09:04 Wind:270º@025 Knots Heading: 020º Ground Speed: 454 Knots Altitude 35075 ft
09:19 Wind:270º@021 Knots Heading: 012º Ground Speed: 241 Knots Altitude 8684 ft
09:21 Flaps:1 at 208 Knots
09:30 Flaps:3 at 191 Knots
09:31 Gear Down: 179 Knots
09:32 Flaps:4 at 177 Knots
09:32 Flaps:5 at 168 Knots
09:34 Wind:269º@008 Knots Heading: 186º Ground Speed: 161 Knots Altitude 429 ft
09:34 TouchDown:Rate -355 ft/min Speed: 153 Knots
09:34 VATSIM:EHAM 280925Z 17011KT 9999 FEW018 SCT045 20/16 Q1013 NOSIG
09:34 Land
09:34 Wind:269º@008 Knots
09:34 Heading: 183º
09:34 Flight Duration: 02:15
09:34 Landing Weight: 152853 Lbs
09:34 POS N52º 20´ 56´´ E004º 42´ 40´´
09:54 Parking brakes on
09:54 Block to Block Duration: 02:41
09:54 Final Fuel: 25886 Lbls
09:54 Spent Fuel: 16194 Lbls
09:54 Flight Length: 891 NM
09:54 TOD Land Length: 146 NM

Exportar CSV

Powered by Drupal - Modified by Danger4k